createdAt,value
2022-11-09T00:01:43.203Z,3.40
2022-11-09T00:04:12.409Z,2.40
2022-11-09T00:06:41.310Z,3.00
2022-11-09T00:09:10.180Z,2.30
2022-11-09T00:11:38.952Z,3.60
2022-11-09T00:14:07.805Z,3.00
2022-11-09T00:16:36.902Z,3.30
2022-11-09T00:19:05.651Z,3.70
2022-11-09T00:24:02.882Z,4.10
2022-11-09T00:29:00.375Z,4.90
2022-11-09T00:31:29.166Z,2.70
2022-11-09T00:33:58.599Z,3.50
2022-11-09T00:36:29.021Z,3.10
2022-11-09T00:39:00.534Z,2.80
2022-11-09T00:41:29.888Z,3.50
2022-11-09T00:43:58.901Z,2.70
2022-11-09T00:46:28.064Z,3.30
2022-11-09T00:48:57.052Z,2.60
2022-11-09T00:51:26.057Z,2.90
2022-11-09T00:53:57.674Z,3.90
2022-11-09T00:56:26.529Z,3.00
2022-11-09T00:58:57.042Z,4.10
2022-11-09T01:01:25.967Z,3.50
2022-11-09T01:03:54.905Z,3.00
2022-11-09T01:06:25.990Z,2.60
2022-11-09T01:08:55.212Z,3.60
2022-11-09T01:11:24.859Z,3.20
2022-11-09T01:13:54.241Z,4.10
2022-11-09T01:16:24.060Z,4.90
2022-11-09T01:18:54.862Z,3.10
2022-11-09T01:21:23.974Z,2.60
2022-11-09T01:23:52.934Z,3.20
2022-11-09T01:26:21.730Z,2.40
2022-11-09T01:28:50.605Z,3.30
2022-11-09T01:31:21.675Z,6.70
2022-11-09T01:33:50.807Z,3.10
2022-11-09T01:43:31.143Z,5.00
2022-11-09T01:46:24.775Z,4.10
2022-11-09T01:49:00.693Z,4.10
2022-11-09T01:52:05.089Z,4.30
2022-11-09T01:54:46.449Z,2.60
2022-11-09T01:57:30.497Z,4.70
2022-11-09T02:00:10.163Z,2.30
2022-11-09T02:02:43.237Z,4.80
2022-11-09T02:05:18.496Z,4.40
2022-11-09T02:07:47.424Z,3.80
2022-11-09T02:10:39.455Z,3.50
2022-11-09T02:15:41.486Z,4.60
2022-11-09T02:18:15.024Z,4.50
2022-11-09T02:20:52.678Z,4.20
2022-11-09T02:23:22.530Z,3.90
2022-11-09T02:26:07.644Z,3.60
2022-11-09T02:28:39.110Z,4.40
2022-11-09T02:31:11.922Z,6.70
2022-11-09T02:33:44.551Z,5.90
2022-11-09T02:36:13.420Z,4.40
2022-11-09T02:38:42.329Z,3.10
2022-11-09T02:41:13.840Z,7.00
2022-11-09T02:43:42.727Z,7.10
2022-11-09T02:46:11.543Z,3.50
2022-11-09T02:48:40.381Z,7.30
2022-11-09T02:51:09.273Z,6.40
2022-11-09T02:53:38.313Z,8.80
2022-11-09T02:56:07.516Z,4.80
2022-11-09T02:58:37.416Z,9.20
2022-11-09T03:01:06.439Z,4.70
2022-11-09T03:03:35.418Z,5.10
2022-11-09T03:06:04.862Z,5.90
2022-11-09T03:08:33.800Z,3.50
2022-11-09T03:11:02.817Z,3.80
2022-11-09T03:13:31.686Z,5.00
2022-11-09T03:16:06.045Z,5.90
2022-11-09T03:18:34.881Z,4.10
2022-11-09T03:21:06.125Z,6.60
2022-11-09T03:23:35.344Z,5.60
2022-11-09T03:26:04.160Z,6.20
2022-11-09T03:28:32.903Z,8.10
2022-11-09T03:31:01.733Z,7.90
2022-11-09T03:33:30.529Z,6.10
2022-11-09T03:35:59.537Z,6.00
2022-11-09T03:38:28.387Z,4.20
2022-11-09T03:41:00.957Z,5.50
2022-11-09T03:43:30.824Z,5.30
2022-11-09T03:45:59.653Z,6.10
2022-11-09T03:48:28.533Z,8.10
2022-11-09T03:50:57.344Z,7.60
2022-11-09T03:53:26.192Z,5.20
2022-11-09T03:55:57.487Z,9.90
2022-11-09T03:58:26.346Z,6.80
2022-11-09T04:00:55.175Z,11.70
2022-11-09T04:03:24.066Z,5.20
2022-11-09T04:05:52.892Z,8.30
2022-11-09T04:08:21.635Z,5.90
2022-11-09T04:10:50.477Z,6.00
2022-11-09T04:13:19.542Z,7.90
2022-11-09T04:15:48.543Z,8.40
2022-11-09T04:18:18.012Z,6.00
2022-11-09T04:20:46.904Z,8.00
2022-11-09T04:23:15.918Z,5.80
2022-11-09T04:25:44.858Z,5.00
2022-11-09T04:28:13.786Z,7.70
2022-11-09T04:30:43.838Z,9.50
2022-11-09T04:33:12.773Z,6.90
2022-11-09T04:35:41.847Z,6.90
2022-11-09T04:38:13.916Z,6.40
2022-11-09T04:40:42.946Z,6.80
2022-11-09T04:43:14.432Z,10.40
2022-11-09T04:45:43.520Z,10.20
2022-11-09T04:48:12.778Z,2.30
2022-11-09T04:50:41.565Z,5.80
2022-11-09T04:53:15.845Z,9.10
2022-11-09T04:55:45.118Z,5.00
2022-11-09T04:58:14.023Z,6.80
2022-11-09T05:00:43.040Z,7.60
2022-11-09T05:03:12.009Z,9.50
2022-11-09T05:05:47.148Z,7.50
2022-11-09T05:08:17.259Z,6.60
2022-11-09T05:10:46.197Z,6.80
2022-11-09T05:13:15.490Z,4.90
2022-11-09T05:15:44.395Z,8.30
2022-11-09T05:18:13.322Z,7.70
2022-11-09T05:20:42.219Z,6.40
2022-11-09T05:23:29.330Z,8.70
2022-11-09T05:25:58.181Z,4.90
2022-11-09T05:28:27.111Z,7.80
2022-11-09T05:30:55.995Z,7.80
2022-11-09T05:33:24.885Z,7.70
2022-11-09T05:35:56.910Z,6.50
2022-11-09T05:38:26.532Z,8.60
2022-11-09T05:40:55.860Z,8.30
2022-11-09T05:43:24.659Z,5.60
2022-11-09T05:45:53.551Z,7.60
2022-11-09T05:48:22.443Z,7.30
2022-11-09T05:50:51.258Z,6.30
2022-11-09T05:53:20.465Z,4.90
2022-11-09T05:55:49.568Z,7.30
2022-11-09T05:58:18.572Z,6.50
2022-11-09T06:00:47.305Z,6.80
2022-11-09T06:05:44.798Z,4.10
2022-11-09T06:08:15.944Z,5.80
2022-11-09T06:10:44.834Z,6.50
2022-11-09T06:13:13.603Z,7.20
2022-11-09T06:15:42.498Z,10.80
2022-11-09T06:18:11.291Z,6.70
2022-11-09T06:20:40.050Z,6.00
2022-11-09T06:23:09.497Z,8.60
2022-11-09T06:25:38.317Z,8.30
2022-11-09T06:28:07.195Z,9.70
2022-11-09T06:30:36.034Z,8.80
2022-11-09T06:33:04.891Z,9.00
2022-11-09T06:35:33.682Z,6.20
2022-11-09T06:40:32.000Z,10.10
2022-11-09T06:43:01.678Z,5.90
2022-11-09T06:45:31.443Z,7.00
2022-11-09T06:48:02.750Z,7.50
2022-11-09T06:50:34.143Z,7.00
2022-11-09T06:53:05.577Z,7.80
2022-11-09T06:55:36.094Z,6.70
2022-11-09T06:58:16.134Z,6.50
2022-11-09T07:00:45.985Z,6.40
2022-11-09T07:03:20.358Z,7.90
2022-11-09T07:08:20.010Z,10.20
2022-11-09T07:10:49.394Z,7.50
2022-11-09T07:13:18.368Z,6.50
2022-11-09T07:15:54.890Z,8.30
2022-11-09T07:18:24.023Z,5.40
2022-11-09T07:20:52.875Z,7.60
2022-11-09T07:23:21.957Z,7.50
2022-11-09T07:25:51.056Z,7.10
2022-11-09T07:28:19.889Z,8.50
2022-11-09T07:30:52.219Z,7.80
2022-11-09T07:33:23.196Z,9.10
2022-11-09T07:35:52.916Z,11.70
2022-11-09T07:38:21.735Z,7.60
2022-11-09T07:40:50.519Z,10.10
2022-11-09T07:43:19.979Z,6.40
2022-11-09T07:45:49.217Z,6.90
2022-11-09T07:48:18.171Z,6.40
2022-11-09T07:50:47.214Z,17.80
2022-11-09T07:53:17.114Z,28.40
2022-11-09T07:55:46.013Z,10.90
2022-11-09T07:58:16.122Z,7.40
2022-11-09T08:00:45.001Z,12.40
2022-11-09T08:03:14.154Z,6.60
2022-11-09T08:05:43.102Z,11.10
2022-11-09T08:08:12.982Z,10.70
2022-11-09T08:10:42.696Z,9.40
2022-11-09T08:13:15.264Z,10.00
2022-11-09T08:15:44.922Z,15.20
2022-11-09T08:18:19.910Z,13.00
2022-11-09T08:20:50.068Z,12.40
2022-11-09T08:23:21.456Z,20.40
2022-11-09T08:25:51.468Z,16.80
2022-11-09T08:28:20.813Z,23.30
2022-11-09T08:30:58.303Z,16.50
2022-11-09T08:33:29.663Z,16.30
2022-11-09T08:35:58.547Z,13.80
2022-11-09T08:38:27.523Z,9.50
2022-11-09T08:40:59.850Z,31.40
2022-11-09T08:43:28.817Z,28.80
2022-11-09T08:45:57.762Z,24.80
2022-11-09T08:48:26.760Z,15.80
2022-11-09T08:50:57.411Z,11.10
2022-11-09T08:53:28.302Z,9.80
2022-11-09T08:55:57.637Z,9.70
2022-11-09T08:58:26.500Z,9.60
2022-11-09T09:00:55.361Z,9.40
2022-11-09T09:03:24.163Z,8.60
2022-11-09T09:05:53.055Z,9.50
2022-11-09T09:08:23.811Z,5.20
2022-11-09T09:10:52.828Z,3.40
2022-11-09T09:13:22.982Z,5.30
2022-11-09T09:15:51.745Z,4.20
2022-11-09T09:18:21.275Z,4.00
2022-11-09T09:20:50.706Z,5.50
2022-11-09T09:23:19.594Z,4.70
2022-11-09T09:25:48.826Z,4.50
2022-11-09T09:28:17.853Z,8.30
2022-11-09T09:30:47.116Z,6.40
2022-11-09T09:33:16.134Z,4.40
2022-11-09T09:35:45.152Z,6.90
2022-11-09T09:38:14.043Z,6.80
2022-11-09T09:41:03.405Z,5.90
2022-11-09T09:43:43.252Z,7.10
2022-11-09T09:46:45.790Z,5.90
2022-11-09T09:49:19.635Z,4.70
2022-11-09T09:52:11.361Z,4.30
2022-11-09T09:54:44.030Z,4.90
2022-11-09T09:57:21.806Z,4.10
2022-11-09T09:59:54.288Z,4.30
2022-11-09T10:02:28.840Z,5.70
2022-11-09T10:05:02.249Z,3.70
2022-11-09T10:07:49.835Z,4.60
2022-11-09T10:10:55.735Z,4.30
2022-11-09T10:13:47.256Z,5.00
2022-11-09T10:16:28.520Z,3.30
2022-11-09T10:19:07.280Z,3.70
2022-11-09T10:21:38.935Z,5.00
2022-11-09T10:24:26.346Z,5.20
2022-11-09T10:27:03.290Z,4.00
2022-11-09T10:29:49.347Z,5.10
2022-11-09T10:32:20.919Z,5.60
2022-11-09T10:35:07.844Z,4.80
2022-11-09T10:37:49.494Z,5.00
2022-11-09T10:40:48.782Z,3.80
2022-11-09T10:43:17.940Z,5.10
2022-11-09T10:45:59.962Z,5.00
2022-11-09T10:48:35.848Z,4.90
2022-11-09T10:51:05.225Z,5.90
2022-11-09T10:53:34.901Z,3.80
2022-11-09T10:56:20.786Z,10.50
2022-11-09T10:58:53.086Z,4.10
2022-11-09T11:01:24.540Z,4.10
2022-11-09T11:03:55.315Z,4.70
2022-11-09T11:06:24.158Z,4.10
2022-11-09T11:08:58.961Z,5.20
2022-11-09T11:11:35.160Z,5.70
2022-11-09T11:14:18.495Z,7.80
2022-11-09T11:16:53.562Z,6.00
2022-11-09T11:19:34.241Z,6.80
2022-11-09T11:22:12.390Z,4.80
2022-11-09T11:25:01.817Z,6.50
2022-11-09T11:27:47.314Z,7.70
2022-11-09T11:30:48.709Z,5.30
2022-11-09T11:33:22.781Z,3.90
2022-11-09T11:41:21.489Z,3.90
2022-11-09T11:44:09.008Z,4.50
2022-11-09T11:46:37.822Z,4.10
2022-11-09T11:49:28.507Z,7.40
2022-11-09T11:52:36.178Z,5.30
2022-11-09T11:55:20.361Z,3.60
2022-11-09T11:58:13.417Z,3.80
2022-11-09T12:00:56.510Z,6.30
2022-11-09T12:03:54.652Z,5.80
2022-11-09T12:06:44.665Z,3.40
2022-11-09T12:09:32.424Z,4.70
2022-11-09T12:12:33.333Z,3.00
2022-11-09T12:15:05.178Z,2.90
2022-11-09T12:17:59.523Z,2.80
2022-11-09T12:21:03.576Z,4.30
2022-11-09T12:23:44.463Z,3.70
2022-11-09T12:26:38.801Z,4.00
2022-11-09T12:29:29.927Z,1.90
2022-11-09T12:32:29.387Z,2.50
2022-11-09T12:35:30.186Z,4.80
2022-11-09T12:38:16.023Z,6.10
2022-11-09T12:40:52.518Z,5.40
2022-11-09T12:43:33.639Z,4.40
2022-11-09T12:46:05.802Z,4.80
2022-11-09T12:48:35.927Z,5.10
2022-11-09T12:51:08.099Z,4.40
2022-11-09T12:53:38.899Z,5.20
2022-11-09T12:56:23.676Z,5.80
2022-11-09T12:58:52.635Z,4.70
2022-11-09T13:01:27.599Z,3.70
2022-11-09T13:03:59.284Z,4.90
2022-11-09T13:06:31.066Z,5.10
2022-11-09T13:09:44.085Z,5.10
2022-11-09T13:12:28.019Z,7.40
2022-11-09T13:14:56.927Z,7.50
2022-11-09T13:17:25.743Z,10.00
2022-11-09T13:19:56.098Z,4.90
2022-11-09T13:22:24.846Z,3.40
2022-11-09T13:25:02.409Z,7.00
2022-11-09T13:27:34.353Z,4.50
2022-11-09T13:30:24.093Z,4.10
2022-11-09T13:33:10.853Z,4.10
2022-11-09T13:35:42.711Z,9.40
2022-11-09T13:38:20.180Z,5.00
2022-11-09T13:40:55.485Z,3.80
2022-11-09T13:43:37.668Z,6.70
2022-11-09T13:46:25.927Z,4.70
2022-11-09T13:48:55.772Z,3.40
2022-11-09T13:51:36.810Z,4.30
2022-11-09T13:54:27.171Z,4.10
2022-11-09T13:56:57.801Z,3.00
2022-11-09T13:59:37.246Z,3.50
2022-11-09T14:02:24.944Z,3.40
2022-11-09T14:04:55.198Z,2.90
2022-11-09T14:07:35.794Z,3.70
2022-11-09T14:10:24.516Z,4.40
2022-11-09T14:13:30.850Z,3.00
2022-11-09T14:16:22.875Z,4.00
2022-11-09T14:19:13.583Z,3.90
2022-11-09T14:21:53.159Z,2.60
2022-11-09T14:24:29.716Z,4.00
2022-11-09T14:27:12.622Z,2.60
2022-11-09T14:29:51.924Z,3.80
2022-11-09T14:32:30.716Z,3.60
2022-11-09T14:35:27.908Z,4.10
2022-11-09T14:37:59.133Z,7.70
2022-11-09T14:40:33.451Z,7.60
2022-11-09T14:43:13.469Z,6.50
2022-11-09T14:45:54.833Z,8.10
2022-11-09T14:48:25.105Z,7.80
2022-11-09T14:50:57.158Z,6.80
2022-11-09T14:53:30.752Z,11.30
2022-11-09T14:56:04.011Z,9.70
2022-11-09T14:58:37.074Z,8.80
2022-11-09T15:01:20.469Z,4.30
2022-11-09T15:04:09.599Z,9.10
2022-11-09T15:06:51.616Z,8.40
2022-11-09T15:09:33.038Z,6.90
2022-11-09T15:12:02.576Z,6.40
2022-11-09T15:14:34.773Z,6.90
2022-11-09T15:17:16.917Z,6.80
2022-11-09T15:19:59.488Z,6.10
2022-11-09T15:22:37.423Z,3.00
2022-11-09T15:25:41.604Z,3.20
2022-11-09T15:28:10.244Z,5.50
2022-11-09T15:30:49.295Z,6.10
2022-11-09T15:33:18.111Z,4.80
2022-11-09T15:35:56.079Z,7.90
2022-11-09T15:38:29.391Z,6.80
2022-11-09T15:40:58.288Z,5.30
2022-11-09T15:43:27.795Z,8.10
2022-11-09T15:45:59.643Z,6.10
2022-11-09T15:48:29.031Z,6.40
2022-11-09T15:50:58.105Z,3.30
2022-11-09T15:53:27.287Z,3.80
2022-11-09T15:55:56.348Z,9.80
2022-11-09T15:58:25.237Z,4.00
2022-11-09T16:00:54.079Z,6.50
2022-11-09T16:03:23.160Z,7.00
2022-11-09T16:05:52.143Z,5.20
2022-11-09T16:08:21.054Z,4.40
2022-11-09T16:10:50.154Z,5.50
2022-11-09T16:13:19.017Z,5.80
2022-11-09T16:15:47.817Z,6.40
2022-11-09T16:18:24.512Z,5.00
2022-11-09T16:20:54.574Z,3.70
2022-11-09T16:23:23.381Z,8.30
2022-11-09T16:25:52.514Z,6.80
2022-11-09T16:28:21.645Z,8.90
2022-11-09T16:30:50.802Z,7.90
2022-11-09T16:33:19.599Z,6.30
2022-11-09T16:35:48.529Z,6.30
2022-11-09T16:38:17.681Z,8.40
2022-11-09T16:40:46.816Z,7.80
2022-11-09T16:43:15.761Z,6.80
2022-11-09T16:45:49.172Z,7.70
2022-11-09T16:48:19.306Z,6.60
2022-11-09T16:50:49.151Z,8.40
2022-11-09T16:53:20.612Z,6.30
2022-11-09T16:55:52.007Z,11.00
2022-11-09T16:58:21.315Z,10.80
2022-11-09T17:03:41.226Z,7.20
2022-11-09T17:06:11.452Z,5.60
2022-11-09T17:08:41.362Z,8.20
2022-11-09T17:11:12.081Z,11.00
2022-11-09T17:13:41.403Z,7.10
2022-11-09T17:16:12.756Z,8.20
2022-11-09T17:18:43.125Z,8.00
2022-11-09T17:21:14.850Z,7.30
2022-11-09T17:23:43.917Z,10.10
2022-11-09T17:26:13.781Z,10.60
2022-11-09T17:28:43.263Z,11.70
2022-11-09T17:31:16.340Z,20.40
2022-11-09T17:33:46.063Z,12.30
2022-11-09T17:36:29.716Z,16.10
2022-11-09T17:39:06.805Z,18.60
2022-11-09T17:41:39.952Z,15.20
2022-11-09T17:44:10.565Z,12.60
2022-11-09T17:46:39.510Z,15.80
2022-11-09T17:49:10.162Z,15.70
2022-11-09T17:51:39.483Z,15.30
2022-11-09T17:54:08.344Z,17.00
2022-11-09T17:56:37.215Z,14.70
2022-11-09T17:59:06.104Z,19.50
2022-11-09T18:01:41.158Z,9.20
2022-11-09T18:04:12.128Z,16.80
2022-11-09T18:06:41.230Z,15.70
2022-11-09T18:11:58.869Z,15.90
2022-11-09T18:16:56.350Z,19.50
2022-11-09T18:19:25.182Z,20.30
2022-11-09T18:21:54.003Z,9.40
2022-11-09T18:24:22.984Z,10.20
2022-11-09T18:26:51.844Z,5.20
2022-11-09T18:29:20.671Z,6.40
2022-11-09T18:31:49.993Z,4.60
2022-11-09T18:34:18.847Z,4.90
2022-11-09T18:36:47.794Z,4.40
2022-11-09T18:39:16.931Z,7.20
2022-11-09T18:41:45.891Z,9.60
2022-11-09T18:44:14.671Z,6.70
2022-11-09T18:46:43.516Z,7.00
2022-11-09T18:49:14.418Z,8.50
2022-11-09T18:51:44.305Z,11.40
2022-11-09T18:54:13.122Z,8.30
2022-11-09T18:56:41.917Z,12.80
2022-11-09T19:01:40.495Z,13.50
2022-11-09T19:04:14.103Z,12.90
2022-11-09T19:06:43.567Z,11.80
2022-11-09T19:09:29.844Z,9.20
2022-11-09T19:14:31.391Z,6.70
2022-11-09T19:17:00.411Z,5.70
2022-11-09T19:19:29.326Z,8.50
2022-11-09T19:21:58.363Z,5.00
2022-11-09T19:24:29.142Z,4.80
2022-11-09T19:26:57.957Z,4.90
2022-11-09T19:29:26.819Z,5.60
2022-11-09T19:31:55.636Z,4.10
2022-11-09T19:34:24.463Z,4.10
2022-11-09T19:36:53.276Z,3.60
2022-11-09T19:39:22.642Z,4.30
2022-11-09T19:41:51.420Z,4.40
2022-11-09T19:46:48.815Z,3.30
2022-11-09T19:51:46.270Z,2.70
2022-11-09T19:54:15.935Z,3.20
2022-11-09T19:56:44.840Z,2.90
2022-11-09T20:01:44.270Z,3.80
2022-11-09T20:04:13.064Z,2.80
2022-11-09T20:09:10.478Z,3.40
2022-11-09T20:14:40.153Z,4.90
2022-11-09T20:19:37.608Z,3.10
2022-11-09T20:24:35.241Z,2.30
2022-11-09T20:27:04.146Z,1.80
2022-11-09T20:29:33.047Z,2.50
2022-11-09T20:32:01.943Z,3.20
2022-11-09T20:34:31.529Z,2.00
2022-11-09T20:37:00.357Z,3.20
2022-11-09T20:41:57.927Z,2.30
2022-11-09T20:44:28.016Z,4.10
2022-11-09T20:46:56.850Z,3.70
2022-11-09T20:49:25.829Z,2.00
2022-11-09T20:51:55.119Z,2.40
2022-11-09T20:54:23.996Z,2.50
2022-11-09T20:56:52.927Z,1.60
2022-11-09T21:01:50.564Z,2.40
2022-11-09T21:04:19.479Z,1.70
2022-11-09T21:09:17.508Z,2.80
2022-11-09T21:12:04.526Z,2.40
2022-11-09T21:14:33.378Z,2.90
2022-11-09T21:19:30.752Z,2.30
2022-11-09T21:24:46.530Z,2.70
2022-11-09T21:27:47.881Z,2.10
2022-11-09T21:30:17.287Z,2.40
2022-11-09T21:32:46.176Z,2.10
2022-11-09T21:35:15.041Z,2.50
2022-11-09T21:37:43.823Z,2.70
2022-11-09T21:42:41.404Z,3.50
2022-11-09T21:45:10.379Z,3.00
2022-11-09T21:47:39.173Z,3.20
2022-11-09T21:52:41.435Z,1.90
2022-11-09T21:55:10.431Z,3.80
2022-11-09T21:57:39.194Z,3.00
2022-11-09T22:02:38.486Z,2.60
2022-11-09T22:07:36.678Z,2.40
2022-11-09T22:10:10.302Z,4.60
2022-11-09T22:12:58.642Z,3.10
2022-11-09T22:15:45.894Z,4.20
2022-11-09T22:18:34.601Z,3.20
2022-11-09T22:21:03.433Z,3.40
2022-11-09T22:26:02.927Z,4.10
2022-11-09T22:28:32.835Z,4.40
2022-11-09T22:31:02.754Z,3.50
2022-11-09T22:33:34.924Z,3.60
2022-11-09T22:36:06.666Z,3.50
2022-11-09T22:38:35.496Z,3.00
2022-11-09T22:43:39.258Z,2.90
2022-11-09T22:46:17.314Z,41.80
2022-11-09T22:48:46.067Z,6.80
2022-11-09T22:53:49.479Z,3.70
2022-11-09T22:56:19.277Z,3.40
2022-11-09T22:58:48.217Z,3.90
2022-11-09T23:01:19.366Z,3.50
2022-11-09T23:03:48.489Z,4.10
2022-11-09T23:06:20.442Z,2.90
2022-11-09T23:08:50.599Z,3.30
2022-11-09T23:11:22.217Z,2.80
2022-11-09T23:13:55.720Z,4.70
2022-11-09T23:16:25.049Z,3.20
2022-11-09T23:18:54.254Z,3.30
2022-11-09T23:21:36.048Z,3.20
2022-11-09T23:26:57.094Z,2.50
2022-11-09T23:31:57.581Z,3.00
2022-11-09T23:34:26.509Z,2.90
2022-11-09T23:36:55.367Z,4.10
2022-11-09T23:41:52.770Z,5.20
2022-11-09T23:46:50.154Z,3.40
2022-11-09T23:51:47.528Z,4.30
2022-11-09T23:56:44.962Z,5.20
2022-11-09T23:59:13.820Z,3.90
